• Join FlightAware (Why Join?)
  • Login
  • US Flag 
08:33AM EDT


 

Airport Tracker/Info


-or-


 

Live Flight TrackerFlight Track Log ✈ RAX81 ✈ 20-May-2013 ✈ KRIC - KTEB

Flight Track Log - Related Links

Times and Time Zones

All times are in EDT time to prevent confusion due to time zone crossing. See the RAX81 flight status page for this flight to view local times or setup timezone preferences in your user account.

Time Position Orientation Groundspeed Altitude Reporting Facility
EDT Latitude Longitude Course Direction KTS MPH feet Rate Location/Type
04:20AM 37.4717 -77.2431 119° Southeast 176 203 2,500  Level Washington Center
04:21AM 37.4994 -77.1886 57° Northeast 176 203 3,900 1,260 Climbing Washington Center
04:22AM 37.5253 -77.1314 60° Northeast 181 208 5,100 1,320 Climbing Washington Center
04:23AM 37.5550 -77.0744 57° Northeast 186 214 6,600 1,440 Climbing Washington Center
04:24AM 37.5808 -77.0200 59° Northeast 186 214 8,000 1,140 Climbing Washington Center
04:25AM 37.6064 -76.9653 59° Northeast 181 208 9,000 480 Climbing Washington Center
04:26AM 37.6364 -76.8925 62° Northeast 186 214 9,000 780 Level Washington Center
04:27AM 37.6642 -76.8328 60° Northeast 203 234 10,600 1,500 Climbing Washington Center
04:28AM 37.6897 -76.7806 58° Northeast 189 217 12,100 1,020 Climbing Washington Center
04:29AM 37.7256 -76.7339 46° Northeast 176 203 12,700 300 Climbing Washington Center
04:30AM 37.7781 -76.7111 19° North 176 203 12,800 60 Climbing Washington Center
04:31AM 37.8408 -76.6936 12° North 198 228 12,900  Climbing Washington Center
04:32AM 37.9056 -76.6733 14° North 222 255 12,900  Level Washington Center
04:33AM 37.9683 -76.6533 14° North 232 267 12,900  Level Washington Center
04:34AM 38.0331 -76.6331 14° North 232 267 13,000  Climbing Washington Center
04:35AM 38.1000 -76.6131 13° North 238 274 13,000  Level Washington Center
04:36AM 38.1628 -76.5953 13° North 238 274 13,000  Level Washington Center
04:37AM 38.2275 -76.5722 16° North 238 274 13,000  Level Washington Center
04:38AM 38.2903 -76.5467 18° North 238 274 13,000  Level Washington Center
04:39AM 38.3594 -76.5264 13° North 238 274 13,000 -60 Level Washington Center
04:40AM 38.4222 -76.4981 19° North 238 274 12,900 -60 Descending Washington Center
04:41AM 38.4869 -76.4750 16° North 238 274 12,900  Level Washington Center
04:42AM 38.5456 -76.4492 19° North 243 280 12,900  Level Washington Center
04:43AM 38.6081 -76.4233 18° North 243 280 12,900  Level Washington Center
04:44AM 38.6500 -76.4000 23° Northeast 241 277 12,900  Level Potomac TRACON
04:45AM 38.7167 -76.3500 30° Northeast 246 283 12,900  Level Potomac TRACON
04:45AM 38.7256 -76.3447 25° Northeast 238 274 12,900  Level Washington Center
04:46AM 38.7883 -76.3053 26° Northeast 238 274 12,900  Level Washington Center
04:47AM 38.8447 -76.2658 29° Northeast 238 274 12,900  Level Washington Center
04:48AM 38.9075 -76.2264 26° Northeast 238 274 12,900  Level Washington Center
04:49AM 38.9681 -76.1869 27° Northeast 238 274 12,900  Level Washington Center
04:50AM 39.0350 -76.1475 25° Northeast 243 280 12,900 -180 Level Washington Center
04:52AM 39.1333 -76.0667 33° Northeast 250 288 12,500 -360 Descending Philadelphia TRACON
04:53AM 39.2000 -76.0333 21° North 258 297 12,000 -240 Descending Philadelphia TRACON
04:54AM 39.2667 -75.9833 30° Northeast 250 288 12,100  Climbing Philadelphia TRACON
04:55AM 39.3167 -75.9500 27° Northeast 241 277 12,100  Level Philadelphia TRACON
04:56AM 39.3833 -75.9167 21° North 242 278 12,100  Level Philadelphia TRACON
04:57AM 39.4333 -75.8667 38° Northeast 242 278 12,100 -60 Level Philadelphia TRACON
04:58AM 39.5000 -75.8333 21° North 248 285 12,000 -60 Descending Philadelphia TRACON
04:59AM 39.5500 -75.7667 46° Northeast 245 282 12,000  Level Philadelphia TRACON
05:00AM 39.6000 -75.7000 46° Northeast 247 284 12,000  Level Philadelphia TRACON
05:01AM 39.6500 -75.6500 38° Northeast 248 285 12,000  Level Philadelphia TRACON
05:02AM 39.7000 -75.5833 46° Northeast 250 288 12,000  Level Philadelphia TRACON
05:03AM 39.7500 -75.5333 38° Northeast 247 284 12,000  Level Philadelphia TRACON
05:04AM 39.8167 -75.4833 30° Northeast 247 284 12,000  Level Philadelphia TRACON
05:05AM 39.8667 -75.4333 38° Northeast 244 281 12,000  Level Philadelphia TRACON
05:06AM 39.9167 -75.3833 37° Northeast 244 281 12,000  Level Philadelphia TRACON
05:07AM 39.9667 -75.3333 37° Northeast 245 282 12,000  Level Philadelphia TRACON
05:08AM 40.0333 -75.2667 37° Northeast 245 282 12,000  Level Philadelphia TRACON
05:09AM 40.0833 -75.2167 37° Northeast 245 282 12,000 -420 Level Philadelphia TRACON
05:10AM 40.1333 -75.1667 37° Northeast 262 302 11,200 -840 Descending Philadelphia TRACON
05:12AM 40.2500 -75.0667 33° Northeast 267 307 9,800 -780 Descending New York TRACON
05:13AM 40.3000 -75.0000 45° Northeast 267 307 9,100 -720 Descending New York TRACON
05:14AM 40.3333 -74.9167 62° Northeast 260 299 8,400 -1,140 Descending New York TRACON
05:15AM 40.3833 -74.8333 52° Northeast 266 306 6,900 -1,500 Descending New York TRACON
05:16AM 40.4333 -74.7500 52° Northeast 265 305 5,300 -1,380 Descending New York TRACON
05:17AM 40.4667 -74.6833 57° Northeast 260 299 4,200 -1,200 Descending New York TRACON
05:18AM 40.5000 -74.6000 62° Northeast 256 295 3,100 -600 Descending New York TRACON
05:19AM 40.5333 -74.5167 62° Northeast 249 287 3,000  Descending New York TRACON
05:19AM 40.5833 -74.4500 45° Northeast 250 288 3,100 -180 Climbing New York TRACON
05:20AM 40.6333 -74.4000 37° Northeast 251 289 2,700 -540 Descending New York TRACON
05:21AM 40.6667 -74.3167 62° Northeast 253 291 2,100 -360 Descending New York TRACON
05:22AM 40.7167 -74.2667 37° Northeast 237 273 2,100 -360 Level New York TRACON
05:23AM 40.7500 -74.2167 49° Northeast 214 246 1,500 -360 Descending New York TRACON
05:24AM 40.7833 -74.1667 49° Northeast 165 190 1,500 -120 Level New York TRACON
05:25AM 40.8167 -74.1333 37° Northeast 137 158 1,300 -540 Descending New York TRACON
05:26AM 40.8333 -74.1000 57° Northeast 123 142 500 -840 Descending New York TRACON
05:28AM 40.8501 -74.0608 48° Northeast  Level Estimated
05:35AM 40.8501 -74.0608 48° Northeast  Level Estimated
05:36AM 40.8501 -74.0608 48° Northeast  Level Estimated